Time;durP1;ratioP1;P1;durP2;ratioP2;P2;SDS_P1;SDS_P2;PMS_P1;PMS_P2;Temp;Humidity;BMP_temperature;BMP_pressure;BME280_temperature;BME280_humidity;BME280_pressure;Samples;Min_cycle;Max_cycle;Signal;HPM_P1;HPM_P2
2023/06/23 00:01:34;;;;;;;32.33;22.70;;;;;;;;;;4956143;29;20482;-79
2023/06/23 00:04:01;;;;;;;24.57;19.93;;;;;;;;;;4938879;29;20979;-79
2023/06/23 00:06:27;;;;;;;22.40;19.43;;;;;;;;;;4938432;29;20425;-80
2023/06/23 00:08:53;;;;;;;25.27;20.27;;;;;;;;;;4938793;29;20972;-79
2023/06/23 00:11:19;;;;;;;31.30;24.63;;;;;;;;;;4938445;29;20664;-80
2023/06/23 00:13:45;;;;;;;27.23;22.47;;;;;;;;;;4940380;29;20479;-79
2023/06/23 00:16:11;;;;;;;31.30;20.70;;;;;;;;;;4959295;29;20462;-79
2023/06/23 00:18:41;;;;;;;25.70;16.27;;;;;;;;;;4959466;29;20495;-79
2023/06/23 00:21:08;;;;;;;22.70;19.00;;;;;;;;;;4959499;29;20451;-79
2023/06/23 00:23:35;;;;;;;24.30;20.00;;;;;;;;;;4942156;29;20949;-80
2023/06/23 00:26:03;;;;;;;28.40;19.20;;;;;;;;;;4942168;29;20383;-79
2023/06/23 00:28:29;;;;;;;21.40;16.90;;;;;;;;;;4941893;29;20632;-79
2023/06/23 00:30:55;;;;;;;26.13;19.73;;;;;;;;;;4926621;29;20422;-80
2023/06/23 00:33:22;;;;;;;25.30;19.27;;;;;;;;;;4941871;29;20426;-80
2023/06/23 00:35:48;;;;;;;22.20;19.03;;;;;;;;;;4959519;29;20404;-80
2023/06/23 00:38:14;;;;;;;26.87;18.40;;;;;;;;;;4941776;29;20782;-81
2023/06/23 00:40:40;;;;;;;21.30;18.00;;;;;;;;;;4958950;29;20455;-80
2023/06/23 00:43:06;;;;;;;23.23;17.80;;;;;;;;;;4959022;29;20811;-80
2023/06/23 00:45:32;;;;;;;25.80;18.87;;;;;;;;;;4942231;29;20425;-80
2023/06/23 00:47:59;;;;;;;21.50;19.00;;;;;;;;;;4941887;29;20425;-80
2023/06/23 00:50:25;;;;;;;19.50;17.40;;;;;;;;;;4959357;29;20395;-80
2023/06/23 00:52:52;;;;;;;33.93;17.90;;;;;;;;;;4958643;29;20482;-81
2023/06/23 00:55:22;;;;;;;21.90;15.87;;;;;;;;;;4925989;29;20436;-79
2023/06/23 00:57:52;;;;;;;22.53;16.23;;;;;;;;;;4941823;29;20447;-80
2023/06/23 01:00:18;;;;;;;19.40;13.23;;;;;;;;;;4941869;29;20913;-80
2023/06/23 01:02:49;;;;;;;21.10;13.57;;;;;;;;;;4926225;29;20452;-79
2023/06/23 01:05:19;;;;;;;18.40;13.53;;;;;;;;;;4941451;29;20416;-79
2023/06/23 01:07:51;;;;;;;13.37;10.47;;;;;;;;;;4926084;29;20430;-79
2023/06/23 01:10:26;;;;;;;15.43;12.90;;;;;;;;;;4958340;29;20746;-80
2023/06/23 01:12:52;;;;;;;15.03;11.90;;;;;;;;;;4941745;29;20829;-79
2023/06/23 01:15:20;;;;;;;16.10;12.47;;;;;;;;;;4958597;29;20475;-79
2023/06/23 01:17:48;;;;;;;19.57;12.30;;;;;;;;;;4958829;29;20405;-80
2023/06/23 01:20:20;;;;;;;14.73;11.17;;;;;;;;;;4940934;29;20906;-79
2023/06/23 01:22:55;;;;;;;10.30;9.20;;;;;;;;;;4958714;29;20445;-78
2023/06/23 01:25:40;;;;;;;17.47;11.00;;;;;;;;;;4941213;29;20934;-79
2023/06/23 01:28:18;;;;;;;13.97;9.77;;;;;;;;;;4941408;29;20464;-79
2023/06/23 01:30:47;;;;;;;16.13;8.43;;;;;;;;;;4958502;29;20829;-79
2023/06/23 01:33:19;;;;;;;15.60;9.90;;;;;;;;;;4941008;29;20479;-79
2023/06/23 01:35:48;;;;;;;13.10;9.53;;;;;;;;;;4941058;29;20515;-79
2023/06/23 01:38:37;;;;;;;13.03;8.80;;;;;;;;;;4958300;29;20760;-79
2023/06/23 01:41:07;;;;;;;12.40;9.00;;;;;;;;;;4952672;28;20526;-79
2023/06/23 01:43:34;;;;;;;12.53;8.63;;;;;;;;;;4940928;29;20435;-79
2023/06/23 01:46:06;;;;;;;16.43;9.17;;;;;;;;;;4925366;29;20439;-79
2023/06/23 01:48:35;;;;;;;13.10;8.97;;;;;;;;;;4940848;29;20428;-79
2023/06/23 01:51:02;;;;;;;12.00;8.50;;;;;;;;;;4958063;29;20408;-79
2023/06/23 01:53:30;;;;;;;14.83;8.40;;;;;;;;;;4924692;29;20501;-80
2023/06/23 01:55:57;;;;;;;9.30;7.17;;;;;;;;;;4957767;29;20411;-79
2023/06/23 01:58:24;;;;;;;8.53;7.63;;;;;;;;;;4940798;29;20485;-79
2023/06/23 02:00:50;;;;;;;12.63;8.30;;;;;;;;;;4958092;29;20464;-79
2023/06/23 02:03:17;;;;;;;11.60;7.87;;;;;;;;;;4940615;29;20402;-79
2023/06/23 02:05:45;;;;;;;10.90;9.80;;;;;;;;;;4941321;29;20460;-79
2023/06/23 02:08:12;;;;;;;9.63;8.63;;;;;;;;;;4940629;29;20429;-80
2023/06/23 02:10:38;;;;;;;9.47;8.47;;;;;;;;;;4940418;29;20421;-79
2023/06/23 02:13:04;;;;;;;14.50;9.90;;;;;;;;;;4940593;29;20948;-79
2023/06/23 02:15:31;;;;;;;14.80;8.67;;;;;;;;;;4940208;29;20504;-80
2023/06/23 02:17:58;;;;;;;13.90;9.40;;;;;;;;;;4940692;29;20427;-79
2023/06/23 02:20:25;;;;;;;15.57;10.17;;;;;;;;;;4957239;29;20759;-80
2023/06/23 02:22:52;;;;;;;13.17;10.60;;;;;;;;;;4940733;29;20432;-79
2023/06/23 02:25:18;;;;;;;16.27;10.23;;;;;;;;;;4940120;29;20451;-79
2023/06/23 02:27:45;;;;;;;14.73;10.10;;;;;;;;;;4940514;29;20391;-78
2023/06/23 02:30:11;;;;;;;13.27;9.73;;;;;;;;;;4957547;29;20437;-80
2023/06/23 02:32:37;;;;;;;13.47;10.10;;;;;;;;;;4957264;29;20428;-79
2023/06/23 02:35:04;;;;;;;16.37;10.87;;;;;;;;;;4939977;29;20917;-79
2023/06/23 02:37:31;;;;;;;16.00;11.10;;;;;;;;;;4923850;29;20424;-79
2023/06/23 02:40:09;;;;;;;14.47;10.30;;;;;;;;;;4939900;29;20502;-79
2023/06/23 02:42:36;;;;;;;11.73;10.53;;;;;;;;;;4956985;29;20946;-79
2023/06/23 02:45:08;;;;;;;12.40;10.87;;;;;;;;;;4940255;29;20421;-79
2023/06/23 02:47:36;;;;;;;20.37;11.30;;;;;;;;;;4956898;29;20399;-79
2023/06/23 02:50:04;;;;;;;22.03;12.00;;;;;;;;;;4957335;29;20397;-80
2023/06/23 02:52:34;;;;;;;17.90;12.87;;;;;;;;;;4957246;29;20419;-80
2023/06/23 02:55:02;;;;;;;18.77;13.73;;;;;;;;;;4957007;29;20809;-80
2023/06/23 02:57:30;;;;;;;19.67;13.20;;;;;;;;;;4939588;29;20429;-80
2023/06/23 02:59:58;;;;;;;19.47;15.70;;;;;;;;;;4941402;29;20429;-80
2023/06/23 03:02:25;;;;;;;21.80;14.73;;;;;;;;;;4963313;29;20468;-80
2023/06/23 03:04:51;;;;;;;20.30;15.07;;;;;;;;;;4963001;29;20467;-80
2023/06/23 03:07:17;;;;;;;19.30;14.70;;;;;;;;;;4943445;29;20416;-79
2023/06/23 03:09:44;;;;;;;24.70;15.90;;;;;;;;;;4924615;29;20803;-80
2023/06/23 03:12:10;;;;;;;25.00;16.07;;;;;;;;;;4939892;29;20406;-80
2023/06/23 03:14:37;;;;;;;26.23;17.87;;;;;;;;;;4923713;29;20443;-79
2023/06/23 03:17:06;;;;;;;21.47;15.30;;;;;;;;;;4940012;29;20420;-79
2023/06/23 03:19:50;;;;;;;21.90;17.57;;;;;;;;;;4939441;29;20567;-80
2023/06/23 03:22:25;;;;;;;17.50;15.30;;;;;;;;;;4956405;29;20488;-80
2023/06/23 03:24:52;;;;;;;20.20;16.20;;;;;;;;;;4939385;29;20478;-80
2023/06/23 03:27:21;;;;;;;22.03;16.47;;;;;;;;;;4956205;29;20401;-79
2023/06/23 03:29:49;;;;;;;28.77;17.43;;;;;;;;;;4956372;29;20415;-80
2023/06/23 03:32:18;;;;;;;28.47;16.30;;;;;;;;;;4939401;29;20788;-80
2023/06/23 03:34:53;;;;;;;24.37;16.77;;;;;;;;;;4956632;29;20405;-79
2023/06/23 03:37:21;;;;;;;25.30;16.60;;;;;;;;;;4939007;29;20954;-79
2023/06/23 03:39:50;;;;;;;22.67;17.70;;;;;;;;;;4956257;29;20446;-79
2023/06/23 03:42:16;;;;;;;26.43;17.77;;;;;;;;;;4956201;29;20531;-88
2023/06/23 03:44:46;;;;;;;25.37;18.47;;;;;;;;;;4956722;29;20503;-80
2023/06/23 03:47:18;;;;;;;27.13;19.90;;;;;;;;;;4939051;28;20395;-79
2023/06/23 03:50:07;;;;;;;30.60;20.40;;;;;;;;;;4959606;29;20409;-80
2023/06/23 03:52:33;;;;;;;29.90;21.00;;;;;;;;;;4937157;29;20495;-79
2023/06/23 03:55:01;;;;;;;32.50;20.17;;;;;;;;;;4942640;29;20498;-79
2023/06/23 03:57:30;;;;;;;35.20;24.00;;;;;;;;;;4943204;29;20795;-79
2023/06/23 03:59:57;;;;;;;27.87;22.10;;;;;;;;;;4943588;29;20424;-79
2023/06/23 04:02:24;;;;;;;33.57;22.70;;;;;;;;;;4942780;29;20474;-79
2023/06/23 04:04:50;;;;;;;36.70;23.17;;;;;;;;;;4942775;29;20425;-79
2023/06/23 04:07:18;;;;;;;47.20;25.23;;;;;;;;;;4927356;29;20570;-79
2023/06/23 04:09:46;;;;;;;36.10;23.10;;;;;;;;;;4943053;29;20455;-79
2023/06/23 04:12:13;;;;;;;31.40;23.40;;;;;;;;;;4942907;29;20507;-79
2023/06/23 04:14:40;;;;;;;38.50;25.77;;;;;;;;;;4959796;29;20752;-79
2023/06/23 04:17:08;;;;;;;37.53;26.53;;;;;;;;;;4959647;29;20404;-79
2023/06/23 04:19:34;;;;;;;30.63;24.17;;;;;;;;;;4942466;29;20423;-79
2023/06/23 04:22:01;;;;;;;38.20;25.07;;;;;;;;;;4942282;29;20549;-79
2023/06/23 04:24:27;;;;;;;36.63;25.83;;;;;;;;;;4926626;29;20524;-79
2023/06/23 04:26:54;;;;;;;39.70;24.63;;;;;;;;;;4959816;29;20471;-79
2023/06/23 04:29:21;;;;;;;33.17;22.30;;;;;;;;;;4941954;29;20935;-79
2023/06/23 04:31:50;;;;;;;33.60;24.03;;;;;;;;;;4942308;29;20801;-79
2023/06/23 04:34:16;;;;;;;31.87;24.83;;;;;;;;;;4959085;29;20761;-79
2023/06/23 04:36:48;;;;;;;35.73;24.90;;;;;;;;;;4959100;29;20779;-79
2023/06/23 04:39:27;;;;;;;33.67;24.50;;;;;;;;;;4942188;29;20908;-79
2023/06/23 04:41:56;;;;;;;38.77;24.37;;;;;;;;;;4942875;29;20453;-79
2023/06/23 04:44:24;;;;;;;34.87;27.37;;;;;;;;;;4943045;29;20445;-80
2023/06/23 04:46:52;;;;;;;36.67;27.60;;;;;;;;;;4959933;29;20405;-79
2023/06/23 04:49:20;;;;;;;33.60;24.40;;;;;;;;;;4962539;29;20440;-79
2023/06/23 04:51:46;;;;;;;31.80;23.70;;;;;;;;;;4960030;29;20412;-79
2023/06/23 04:54:17;;;;;;;31.27;22.77;;;;;;;;;;4942282;29;20443;-79
2023/06/23 04:56:45;;;;;;;35.77;23.50;;;;;;;;;;4959345;29;20399;-79
2023/06/23 04:59:13;;;;;;;34.90;27.13;;;;;;;;;;4941161;29;20773;-79
2023/06/23 05:01:41;;;;;;;37.13;25.70;;;;;;;;;;4958915;29;20442;-79
2023/06/23 05:04:08;;;;;;;31.53;22.60;;;;;;;;;;4942097;29;20875;-79
2023/06/23 05:06:36;;;;;;;34.10;25.87;;;;;;;;;;4941248;29;20424;-79
2023/06/23 05:09:04;;;;;;;32.10;23.43;;;;;;;;;;4941937;29;20516;-79
2023/06/23 05:11:30;;;;;;;33.00;23.90;;;;;;;;;;4958561;29;20416;-79
2023/06/23 05:13:57;;;;;;;29.63;23.87;;;;;;;;;;4958728;29;20419;-79
2023/06/23 05:16:23;;;;;;;36.60;24.13;;;;;;;;;;4958418;29;20409;-80
2023/06/23 05:18:50;;;;;;;32.70;24.10;;;;;;;;;;4941375;29;20834;-79
2023/06/23 05:21:18;;;;;;;28.80;22.03;;;;;;;;;;4926032;29;20503;-79
2023/06/23 05:23:45;;;;;;;31.93;25.57;;;;;;;;;;4941338;29;20411;-79
2023/06/23 05:26:13;;;;;;;32.23;24.40;;;;;;;;;;4958421;29;20408;-79
2023/06/23 05:28:40;;;;;;;29.53;23.33;;;;;;;;;;4958196;29;20471;-79
2023/06/23 05:31:07;;;;;;;29.80;22.00;;;;;;;;;;4958784;29;20402;-79
2023/06/23 05:33:35;;;;;;;34.27;25.50;;;;;;;;;;4958069;29;20391;-79
2023/06/23 05:36:02;;;;;;;40.80;25.10;;;;;;;;;;4958149;29;20767;-79
2023/06/23 05:38:29;;;;;;;32.90;25.60;;;;;;;;;;4940896;29;20416;-79
2023/06/23 05:40:55;;;;;;;31.70;23.30;;;;;;;;;;4959181;29;20435;-79
2023/06/23 05:43:22;;;;;;;32.53;25.83;;;;;;;;;;4961237;29;20376;-79
2023/06/23 05:45:48;;;;;;;30.17;24.10;;;;;;;;;;4960147;29;20384;-79
2023/06/23 05:48:20;;;;;;;31.80;24.00;;;;;;;;;;4941010;29;20428;-79
2023/06/23 05:50:47;;;;;;;33.97;26.03;;;;;;;;;;4940637;29;20863;-80
2023/06/23 05:53:15;;;;;;;36.97;24.10;;;;;;;;;;4959653;29;20462;-79
2023/06/23 05:55:46;;;;;;;28.53;21.33;;;;;;;;;;4942296;29;20511;-80
2023/06/23 05:58:13;;;;;;;26.40;22.17;;;;;;;;;;4957787;29;20380;-80
2023/06/23 06:00:42;;;;;;;24.00;20.77;;;;;;;;;;4957946;29;20427;-80
2023/06/23 06:03:11;;;;;;;25.47;18.90;;;;;;;;;;4957794;29;20413;-80
2023/06/23 06:05:39;;;;;;;25.47;20.43;;;;;;;;;;4957682;29;20387;-79
2023/06/23 06:08:06;;;;;;;23.57;21.03;;;;;;;;;;4958400;29;20379;-79
2023/06/23 06:10:32;;;;;;;23.83;20.97;;;;;;;;;;4924686;29;20395;-79
2023/06/23 06:12:59;;;;;;;25.40;22.57;;;;;;;;;;4959654;29;20401;-79
2023/06/23 06:15:26;;;;;;;28.73;22.33;;;;;;;;;;4940376;29;20399;-88
2023/06/23 06:17:52;;;;;;;27.93;21.00;;;;;;;;;;4957633;29;20428;-79
2023/06/23 06:20:19;;;;;;;25.07;22.30;;;;;;;;;;4957721;29;20388;-79
2023/06/23 06:22:45;;;;;;;25.33;22.20;;;;;;;;;;4957678;29;20624;-79
2023/06/23 06:25:12;;;;;;;25.43;21.03;;;;;;;;;;4958371;29;20412;-79
2023/06/23 06:27:38;;;;;;;29.70;23.73;;;;;;;;;;4940252;29;20391;-79
2023/06/23 06:30:06;;;;;;;26.20;21.80;;;;;;;;;;4957956;29;20936;-79
2023/06/23 06:32:37;;;;;;;30.00;21.50;;;;;;;;;;4948359;29;20836;-79
2023/06/23 06:35:05;;;;;;;25.50;22.90;;;;;;;;;;4968619;29;20386;-79
2023/06/23 06:37:34;;;;;;;25.27;22.23;;;;;;;;;;4928253;29;20428;-79
2023/06/23 06:40:00;;;;;;;23.20;20.43;;;;;;;;;;4957518;29;20387;-79
2023/06/23 06:42:26;;;;;;;28.40;23.37;;;;;;;;;;4939999;29;20515;-79
2023/06/23 06:44:52;;;;;;;27.13;23.47;;;;;;;;;;4957071;29;20474;-79
2023/06/23 06:47:19;;;;;;;24.37;21.57;;;;;;;;;;4956994;29;20391;-79
2023/06/23 06:49:45;;;;;;;27.00;22.57;;;;;;;;;;4956665;29;20411;-79
2023/06/23 06:52:11;;;;;;;25.73;22.97;;;;;;;;;;4957215;29;20416;-79
2023/06/23 06:54:38;;;;;;;26.67;21.17;;;;;;;;;;4957376;29;20485;-94
2023/06/23 06:57:04;;;;;;;32.87;22.90;;;;;;;;;;4943419;29;20394;-90
2023/06/23 06:59:30;;;;;;;24.37;21.83;;;;;;;;;;4941763;29;20459;-88
2023/06/23 07:01:57;;;;;;;24.73;21.20;;;;;;;;;;4939206;29;20799;-86
2023/06/23 07:04:23;;;;;;;24.70;22.10;;;;;;;;;;4939090;29;20416;-85
2023/06/23 07:06:53;;;;;;;21.77;19.30;;;;;;;;;;4938874;29;20416;-86
2023/06/23 07:09:19;;;;;;;21.57;19.27;;;;;;;;;;4923134;29;20436;-86
2023/06/23 07:11:51;;;;;;;21.67;19.50;;;;;;;;;;4938928;29;20433;-88
2023/06/23 07:14:17;;;;;;;25.00;21.93;;;;;;;;;;4938821;29;20779;-87
2023/06/23 07:16:43;;;;;;;28.87;20.33;;;;;;;;;;4939055;29;20402;-87
2023/06/23 07:19:09;;;;;;;24.80;22.13;;;;;;;;;;4955957;29;20384;-88
2023/06/23 07:21:38;;;;;;;20.50;17.23;;;;;;;;;;4923219;28;20450;-89
2023/06/23 07:24:04;;;;;;;20.07;18.07;;;;;;;;;;4939100;29;20407;-88
2023/06/23 07:26:30;;;;;;;21.97;18.10;;;;;;;;;;4956221;29;20387;-88
2023/06/23 07:28:56;;;;;;;21.90;19.60;;;;;;;;;;4955692;29;20399;-88
2023/06/23 07:31:25;;;;;;;23.90;19.50;;;;;;;;;;4939253;29;20416;-89
2023/06/23 07:33:51;;;;;;;22.70;18.43;;;;;;;;;;4938890;29;20765;-89
2023/06/23 07:36:17;;;;;;;22.50;17.03;;;;;;;;;;4939375;29;20754;-89
2023/06/23 07:38:45;;;;;;;19.10;16.57;;;;;;;;;;4923038;29;20399;-92
2023/06/23 07:41:11;;;;;;;17.77;15.70;;;;;;;;;;4938817;29;20456;-91
2023/06/23 07:43:40;;;;;;;24.13;18.90;;;;;;;;;;4922894;29;20406;-91
2023/06/23 07:46:06;;;;;;;22.47;17.67;;;;;;;;;;4938796;29;20880;-91
2023/06/23 07:48:33;;;;;;;22.03;16.30;;;;;;;;;;4955650;29;20375;-89
2023/06/23 07:50:59;;;;;;;19.07;17.27;;;;;;;;;;4955276;29;20415;-90
2023/06/23 07:53:24;;;;;;;23.23;17.33;;;;;;;;;;4955893;29;20809;-90
2023/06/23 07:55:51;;;;;;;21.30;16.20;;;;;;;;;;4938236;29;20426;-90
2023/06/23 07:58:17;;;;;;;22.37;16.50;;;;;;;;;;4938372;29;20406;-91
2023/06/23 08:00:43;;;;;;;19.30;17.07;;;;;;;;;;4937890;29;20391;-89
2023/06/23 08:03:09;;;;;;;19.00;17.00;;;;;;;;;;4922679;29;20424;-91
2023/06/23 08:05:36;;;;;;;19.50;15.00;;;;;;;;;;4955329;29;20379;-91
2023/06/23 08:08:02;;;;;;;17.77;14.33;;;;;;;;;;4955366;29;20404;-91
2023/06/23 08:10:28;;;;;;;15.33;13.90;;;;;;;;;;4955420;29;20379;-92
2023/06/23 08:12:54;;;;;;;15.53;13.93;;;;;;;;;;4939666;29;20420;-92
2023/06/23 08:15:25;;;;;;;14.67;13.13;;;;;;;;;;4938972;29;20476;-92
2023/06/23 08:17:51;;;;;;;17.70;14.40;;;;;;;;;;4938368;29;20755;-90
2023/06/23 08:20:18;;;;;;;16.07;14.47;;;;;;;;;;4922519;29;20428;-91
2023/06/23 08:22:44;;;;;;;15.00;13.40;;;;;;;;;;4955405;29;20537;-92
2023/06/23 08:25:14;;;;;;;16.77;13.53;;;;;;;;;;4938493;29;20402;-92
2023/06/23 08:27:40;;;;;;;15.97;13.40;;;;;;;;;;4923262;29;20486;-92
2023/06/23 08:30:09;;;;;;;15.53;14.10;;;;;;;;;;4938504;29;20493;-91
2023/06/23 08:32:37;;;;;;;15.17;13.60;;;;;;;;;;4937981;29;20735;-92
2023/06/23 08:35:03;;;;;;;18.20;14.60;;;;;;;;;;4940097;29;20443;-92
2023/06/23 08:37:30;;;;;;;15.93;12.90;;;;;;;;;;4942139;29;20420;-91
2023/06/23 08:39:58;;;;;;;14.00;12.67;;;;;;;;;;4941387;29;20395;-89
2023/06/23 08:42:26;;;;;;;14.83;13.27;;;;;;;;;;4941435;29;20450;-91
2023/06/23 08:44:55;;;;;;;12.73;11.50;;;;;;;;;;4941183;29;20416;-90
2023/06/23 08:47:22;;;;;;;13.03;11.70;;;;;;;;;;4941475;29;20416;-90
2023/06/23 08:49:49;;;;;;;16.40;12.80;;;;;;;;;;4941217;29;20540;-90
2023/06/23 08:52:17;;;;;;;15.37;11.10;;;;;;;;;;4952879;28;20829;-87
2023/06/23 08:54:43;;;;;;;14.00;10.63;;;;;;;;;;4976007;28;20517;-90
2023/06/23 08:57:09;;;;;;;13.33;11.80;;;;;;;;;;4976262;28;20422;-88
2023/06/23 08:59:35;;;;;;;12.60;11.30;;;;;;;;;;4975944;28;20414;-88
2023/06/23 09:02:01;;;;;;;14.60;13.10;;;;;;;;;;4960494;28;20443;-90
2023/06/23 09:04:27;;;;;;;13.77;11.67;;;;;;;;;;4935134;29;20488;-90
2023/06/23 09:06:53;;;;;;;12.47;11.17;;;;;;;;;;4957087;29;20788;-89
2023/06/23 09:09:20;;;;;;;14.53;13.03;;;;;;;;;;4958144;29;20400;-89
2023/06/23 09:11:46;;;;;;;12.67;10.70;;;;;;;;;;4957315;29;20421;-89
2023/06/23 09:14:13;;;;;;;12.60;11.30;;;;;;;;;;4957074;29;20413;-89
2023/06/23 09:16:40;;;;;;;12.13;10.83;;;;;;;;;;4956522;29;20940;-91
2023/06/23 09:19:07;;;;;;;14.60;10.20;;;;;;;;;;4958102;29;20413;-90
2023/06/23 09:21:35;;;;;;;12.00;10.40;;;;;;;;;;4956734;29;20468;-88
2023/06/23 09:24:05;;;;;;;13.67;10.10;;;;;;;;;;4956757;29;20427;-81
2023/06/23 09:26:48;;;;;;;14.20;10.60;;;;;;;;;;4957347;29;20400;-78
2023/06/23 09:29:24;;;;;;;13.73;10.70;;;;;;;;;;4954589;29;20408;-80
2023/06/23 09:31:51;;;;;;;14.27;12.20;;;;;;;;;;4953827;29;20507;-79
2023/06/23 09:34:31;;;;;;;12.30;11.00;;;;;;;;;;4957465;29;20421;-80
2023/06/23 09:37:10;;;;;;;12.23;10.93;;;;;;;;;;4955110;29;20448;-79
2023/06/23 09:39:37;;;;;;;13.13;11.07;;;;;;;;;;4956374;29;20766;-80
2023/06/23 09:42:09;;;;;;;10.30;9.23;;;;;;;;;;4957009;29;20452;-80
2023/06/23 09:44:39;;;;;;;10.43;9.03;;;;;;;;;;4955973;29;20428;-78
2023/06/23 09:47:06;;;;;;;11.93;8.70;;;;;;;;;;4956165;28;20488;-79
2023/06/23 09:49:42;;;;;;;10.23;9.23;;;;;;;;;;4957033;29;20832;-78
2023/06/23 09:52:08;;;;;;;9.73;8.83;;;;;;;;;;4953516;29;20737;-78
2023/06/23 09:54:36;;;;;;;12.47;9.83;;;;;;;;;;4956775;28;20452;-77
2023/06/23 09:57:03;;;;;;;10.07;9.27;;;;;;;;;;4955571;29;20416;-78
2023/06/23 09:59:31;;;;;;;11.43;8.77;;;;;;;;;;4956932;29;20420;-78
2023/06/23 10:01:57;;;;;;;10.17;8.27;;;;;;;;;;4955154;29;20499;-78
2023/06/23 10:04:32;;;;;;;9.13;7.63;;;;;;;;;;4939612;29;20464;-78
2023/06/23 10:06:58;;;;;;;8.90;7.70;;;;;;;;;;4956540;29;20407;-81
2023/06/23 10:09:26;;;;;;;13.27;8.63;;;;;;;;;;4955171;28;20416;-81
2023/06/23 10:11:53;;;;;;;9.67;8.40;;;;;;;;;;4956473;29;20479;-81
2023/06/23 10:14:19;;;;;;;9.73;7.20;;;;;;;;;;4956370;29;20799;-81
2023/06/23 10:16:45;;;;;;;6.80;6.10;;;;;;;;;;4954753;28;20467;-81
2023/06/23 10:19:11;;;;;;;7.43;6.53;;;;;;;;;;4954899;28;20413;-80
2023/06/23 10:21:39;;;;;;;12.40;8.20;;;;;;;;;;4919502;29;21004;-80
2023/06/23 10:24:06;;;;;;;6.90;6.30;;;;;;;;;;4920291;29;20433;-81
2023/06/23 10:26:36;;;;;;;6.40;5.23;;;;;;;;;;4937117;29;20413;-80
2023/06/23 10:29:05;;;;;;;7.10;6.30;;;;;;;;;;4919730;29;20433;-81
2023/06/23 10:31:31;;;;;;;8.30;7.20;;;;;;;;;;4919958;29;20450;-80
2023/06/23 10:33:59;;;;;;;8.90;7.10;;;;;;;;;;4920249;29;20433;-88
2023/06/23 10:36:25;;;;;;;7.10;6.20;;;;;;;;;;4922315;29;20406;-93
2023/06/23 10:38:52;;;;;;;7.33;6.07;;;;;;;;;;4921827;29;20417;-91
2023/06/23 10:41:19;;;;;;;6.33;5.77;;;;;;;;;;4921672;29;20472;-93
2023/06/23 10:43:47;;;;;;;5.83;5.23;;;;;;;;;;4921210;29;20480;-92
2023/06/23 10:46:14;;;;;;;5.30;4.90;;;;;;;;;;4920798;29;20423;-91
2023/06/23 10:48:40;;;;;;;7.40;6.20;;;;;;;;;;4936914;29;20885;-91
2023/06/23 10:51:07;;;;;;;5.67;5.17;;;;;;;;;;4936939;29;20428;-78
2023/06/23 10:53:33;;;;;;;8.47;5.30;;;;;;;;;;4919854;29;20576;-78
2023/06/23 10:56:00;;;;;;;6.70;6.00;;;;;;;;;;4936795;29;20469;-78
2023/06/23 10:58:27;;;;;;;6.50;5.90;;;;;;;;;;4936479;29;20516;-78
2023/06/23 11:00:53;;;;;;;7.30;5.23;;;;;;;;;;4936269;29;20401;-77
2023/06/23 11:03:25;;;;;;;6.07;5.47;;;;;;;;;;4919603;29;20487;-78
2023/06/23 11:05:58;;;;;;;7.23;4.60;;;;;;;;;;4936413;29;20413;-81
2023/06/23 11:08:29;;;;;;;5.43;4.93;;;;;;;;;;4919564;29;20417;-80
2023/06/23 11:10:59;;;;;;;5.20;4.77;;;;;;;;;;4918951;29;20456;-80
2023/06/23 11:13:42;;;;;;;6.33;4.80;;;;;;;;;;4918942;29;20425;-80
2023/06/23 11:16:26;;;;;;;4.63;4.20;;;;;;;;;;4936465;29;20410;-84
2023/06/23 11:18:53;;;;;;;5.07;4.57;;;;;;;;;;4936174;29;20425;-83
2023/06/23 11:21:19;;;;;;;4.43;4.03;;;;;;;;;;4919031;29;20465;-83
2023/06/23 11:24:04;;;;;;;5.63;5.03;;;;;;;;;;4918878;29;20946;-82
2023/06/23 11:26:30;;;;;;;4.80;4.40;;;;;;;;;;4918874;29;20834;-83
2023/06/23 11:28:56;;;;;;;5.40;4.90;;;;;;;;;;4935891;29;20441;-83
2023/06/23 11:31:27;;;;;;;5.17;4.70;;;;;;;;;;4936054;29;20421;-82
2023/06/23 11:33:56;;;;;;;5.13;4.57;;;;;;;;;;4918740;29;20465;-82
2023/06/23 11:36:24;;;;;;;5.50;4.87;;;;;;;;;;4918831;29;20838;-83
2023/06/23 11:38:50;;;;;;;7.20;4.27;;;;;;;;;;4918551;29;20405;-83
2023/06/23 11:41:25;;;;;;;5.90;3.43;;;;;;;;;;4934925;29;20465;-83
2023/06/23 11:43:56;;;;;;;4.53;3.87;;;;;;;;;;4935961;29;20437;-82
2023/06/23 11:46:22;;;;;;;6.10;4.33;;;;;;;;;;4936167;29;20410;-82
2023/06/23 11:48:48;;;;;;;5.70;5.20;;;;;;;;;;4918640;29;20456;-83
2023/06/23 11:51:15;;;;;;;6.60;4.73;;;;;;;;;;4918702;29;20429;-84
2023/06/23 11:53:41;;;;;;;5.20;3.83;;;;;;;;;;4918566;29;20466;-82
2023/06/23 11:56:07;;;;;;;7.10;4.93;;;;;;;;;;4935703;29;20406;-82
2023/06/23 11:58:34;;;;;;;4.10;3.70;;;;;;;;;;4935779;29;20810;-80
2023/06/23 12:01:00;;;;;;;3.87;3.57;;;;;;;;;;4918486;29;20524;-80
2023/06/23 12:03:28;;;;;;;4.67;3.60;;;;;;;;;;4918636;29;20438;-81
2023/06/23 12:05:54;;;;;;;4.13;3.70;;;;;;;;;;4935697;29;20445;-80
2023/06/23 12:08:25;;;;;;;5.30;4.20;;;;;;;;;;4935844;29;20424;-83
2023/06/23 12:10:52;;;;;;;4.73;3.93;;;;;;;;;;4921885;29;20413;-79
2023/06/23 12:13:19;;;;;;;5.60;4.17;;;;;;;;;;4939567;29;20481;-82
2023/06/23 12:15:45;;;;;;;4.30;4.00;;;;;;;;;;4922200;29;20480;-81
2023/06/23 12:18:11;;;;;;;4.37;4.07;;;;;;;;;;4921941;29;20485;-79
2023/06/23 12:20:47;;;;;;;4.53;4.13;;;;;;;;;;4939494;29;20448;-79
2023/06/23 12:23:14;;;;;;;4.73;4.17;;;;;;;;;;4939633;29;20471;-78
2023/06/23 12:25:52;;;;;;;5.20;4.10;;;;;;;;;;4939334;29;20416;-78
2023/06/23 12:28:19;;;;;;;4.47;3.50;;;;;;;;;;4939255;29;20409;-78
2023/06/23 12:30:48;;;;;;;5.20;4.10;;;;;;;;;;4939056;29;20413;-78
2023/06/23 12:33:16;;;;;;;3.90;3.50;;;;;;;;;;4939088;29;20429;-78
2023/06/23 12:35:56;;;;;;;3.73;3.33;;;;;;;;;;4938974;29;20420;-84
2023/06/23 12:38:23;;;;;;;3.80;3.47;;;;;;;;;;4939125;29;20422;-83
2023/06/23 12:40:49;;;;;;;3.97;3.60;;;;;;;;;;4937436;29;20429;-82
2023/06/23 12:43:15;;;;;;;4.47;4.10;;;;;;;;;;4921730;29;20516;-81
2023/06/23 12:45:41;;;;;;;5.53;3.80;;;;;;;;;;4921686;29;20508;-81
2023/06/23 12:48:08;;;;;;;4.23;3.73;;;;;;;;;;4937802;29;20420;-81
2023/06/23 12:50:37;;;;;;;4.80;3.93;;;;;;;;;;4921926;29;20925;-82
2023/06/23 12:53:03;;;;;;;4.63;4.17;;;;;;;;;;4938209;29;20473;-82
2023/06/23 12:55:29;;;;;;;4.63;3.43;;;;;;;;;;4938777;29;20418;-81
2023/06/23 12:57:55;;;;;;;3.60;3.30;;;;;;;;;;4937207;29;20418;-81
2023/06/23 13:00:21;;;;;;;3.77;2.90;;;;;;;;;;4938774;29;20453;-80
2023/06/23 13:02:49;;;;;;;5.23;4.00;;;;;;;;;;4921621;29;20469;-81
2023/06/23 13:05:15;;;;;;;4.77;3.73;;;;;;;;;;4938681;29;20441;-82
2023/06/23 13:07:42;;;;;;;4.33;3.50;;;;;;;;;;4938524;29;20409;-81
2023/06/23 13:10:08;;;;;;;3.60;3.23;;;;;;;;;;4921060;29;20769;-82
2023/06/23 13:12:35;;;;;;;3.83;3.53;;;;;;;;;;4921296;29;20492;-82
2023/06/23 13:15:01;;;;;;;6.27;3.73;;;;;;;;;;4938206;29;20397;-82
2023/06/23 13:17:27;;;;;;;3.10;2.90;;;;;;;;;;4921547;29;20424;-80
2023/06/23 13:19:53;;;;;;;3.90;3.60;;;;;;;;;;4920875;29;20410;-83
2023/06/23 13:22:19;;;;;;;5.83;3.83;;;;;;;;;;4937911;29;21022;-82
2023/06/23 13:24:45;;;;;;;3.77;3.40;;;;;;;;;;4921108;29;20429;-82
2023/06/23 13:27:11;;;;;;;4.67;4.27;;;;;;;;;;4920744;29;20965;-80
2023/06/23 13:29:37;;;;;;;3.43;3.13;;;;;;;;;;4921197;29;20898;-82
2023/06/23 13:32:04;;;;;;;4.00;3.70;;;;;;;;;;4937807;29;20406;-83
2023/06/23 13:34:30;;;;;;;4.53;4.13;;;;;;;;;;4921007;29;20525;-83
2023/06/23 13:36:56;;;;;;;7.53;4.07;;;;;;;;;;4936547;29;20418;-83
2023/06/23 13:39:22;;;;;;;3.17;2.87;;;;;;;;;;4920715;29;20421;-81
2023/06/23 13:41:48;;;;;;;3.60;3.30;;;;;;;;;;4937466;29;20553;-82
2023/06/23 13:44:17;;;;;;;3.90;3.27;;;;;;;;;;4936464;29;20965;-82
2023/06/23 13:46:43;;;;;;;3.43;3.13;;;;;;;;;;4936558;29;20449;-82
2023/06/23 13:49:09;;;;;;;3.63;3.10;;;;;;;;;;4936679;29;20413;-81
2023/06/23 13:51:35;;;;;;;5.90;3.20;;;;;;;;;;4920457;29;20922;-81
2023/06/23 13:54:04;;;;;;;3.23;2.93;;;;;;;;;;4936019;29;20468;-83
2023/06/23 13:56:30;;;;;;;5.30;3.67;;;;;;;;;;4920754;29;20807;-83
2023/06/23 13:58:55;;;;;;;3.77;3.30;;;;;;;;;;4940987;29;20479;-77
2023/06/23 14:01:21;;;;;;;3.40;3.07;;;;;;;;;;4955728;29;20964;-76
2023/06/23 14:03:49;;;;;;;4.13;3.53;;;;;;;;;;4956184;29;20464;-76
2023/06/23 14:06:15;;;;;;;5.33;2.73;;;;;;;;;;4955310;29;20451;-75
2023/06/23 14:08:41;;;;;;;3.17;2.90;;;;;;;;;;4956092;29;20889;-77
2023/06/23 14:11:07;;;;;;;3.40;3.10;;;;;;;;;;4955888;29;20417;-76
2023/06/23 14:13:33;;;;;;;3.47;3.13;;;;;;;;;;4955452;29;20444;-76
2023/06/23 14:15:59;;;;;;;3.23;2.93;;;;;;;;;;4954908;28;20888;-76
2023/06/23 14:18:25;;;;;;;3.53;3.23;;;;;;;;;;4955131;29;20451;-77
2023/06/23 14:20:51;;;;;;;4.37;3.30;;;;;;;;;;4953834;29;20424;-76
2023/06/23 14:23:17;;;;;;;3.37;3.10;;;;;;;;;;4955690;29;20467;-76
2023/06/23 14:25:43;;;;;;;8.40;3.93;;;;;;;;;;4938888;29;20400;-76
2023/06/23 14:28:09;;;;;;;4.23;3.40;;;;;;;;;;4954524;29;20440;-76
2023/06/23 14:30:35;;;;;;;3.50;3.20;;;;;;;;;;4955913;29;20797;-77